Time;durP1;ratioP1;P1;durP2;ratioP2;P2;SDS_P1;SDS_P2;PMS_P1;PMS_P2;Temp;Humidity;BMP_temperature;BMP_pressure;BME280_temperature;BME280_humidity;BME280_pressure;Samples;Min_cycle;Max_cycle;Signal;HPM_P1;HPM_P2
2023/08/06 00:00:05;;;;;;;10.02;5.68;;;14.50;99.90;;;;;;4960066;28;20030;-79
2023/08/06 00:02:31;;;;;;;9.48;6.32;;;14.50;99.90;;;;;;4959370;28;20049;-79
2023/08/06 00:04:57;;;;;;;10.82;6.20;;;14.50;99.90;;;;;;4960176;28;20027;-79
2023/08/06 00:07:22;;;;;;;9.93;6.72;;;14.50;99.90;;;;;;4960227;28;20105;-80
2023/08/06 00:09:48;;;;;;;9.20;6.35;;;14.50;99.90;;;;;;4958136;28;20027;-79
2023/08/06 00:12:13;;;;;;;6.97;5.28;;;14.40;99.90;;;;;;4959797;28;20120;-79
2023/08/06 00:14:39;;;;;;;6.97;5.65;;;14.40;99.90;;;;;;4959250;28;20039;-80
2023/08/06 00:17:05;;;;;;;10.45;5.43;;;14.40;99.90;;;;;;4959177;28;20050;-79
2023/08/06 00:19:31;;;;;;;8.70;6.25;;;14.30;99.90;;;;;;4960402;28;20020;-80
2023/08/06 00:21:57;;;;;;;6.40;5.15;;;14.30;99.90;;;;;;4959543;28;20034;-80
2023/08/06 00:24:23;;;;;;;6.38;5.18;;;14.30;99.90;;;;;;4960968;28;21049;-80
2023/08/06 00:26:48;;;;;;;7.82;5.35;;;14.20;99.90;;;;;;4960426;28;20117;-79
2023/08/06 00:29:14;;;;;;;9.07;5.60;;;14.20;99.90;;;;;;4959293;28;20442;-80
2023/08/06 00:31:39;;;;;;;6.97;5.05;;;14.20;99.90;;;;;;4959097;28;20778;-80
2023/08/06 00:34:05;;;;;;;8.50;5.80;;;14.20;99.90;;;;;;4963462;28;20466;-80
2023/08/06 00:36:30;;;;;;;6.80;5.32;;;14.10;99.90;;;;;;4962079;28;20046;-79
2023/08/06 00:38:56;;;;;;;7.18;5.45;;;14.10;99.90;;;;;;4962424;28;21429;-79
2023/08/06 00:41:21;;;;;;;9.07;5.57;;;14.10;99.90;;;;;;4962705;28;20042;-79
2023/08/06 00:43:47;;;;;;;5.40;4.78;;;14.10;99.90;;;;;;4962472;28;20505;-80
2023/08/06 00:46:13;;;;;;;6.88;4.72;;;14.10;99.90;;;;;;4962548;28;20024;-79
2023/08/06 00:48:40;;;;;;;7.20;5.13;;;14.10;99.90;;;;;;4961804;28;20030;-79
2023/08/06 00:51:06;;;;;;;6.50;4.18;;;14.00;99.90;;;;;;4962393;28;20084;-79
2023/08/06 00:53:32;;;;;;;6.95;4.88;;;14.10;99.90;;;;;;4962547;28;20031;-80
2023/08/06 00:55:58;;;;;;;5.45;4.22;;;14.00;99.90;;;;;;4963264;28;20026;-79
2023/08/06 00:58:24;;;;;;;5.63;4.03;;;14.00;99.90;;;;;;4961901;28;20034;-79
2023/08/06 01:00:50;;;;;;;5.60;4.53;;;14.00;99.90;;;;;;4962152;28;21491;-79
2023/08/06 01:03:15;;;;;;;5.45;4.20;;;14.00;99.90;;;;;;4962106;28;20026;-80
2023/08/06 01:05:41;;;;;;;6.53;4.25;;;14.00;99.90;;;;;;4961372;28;20031;-79
2023/08/06 01:08:23;;;;;;;5.85;4.43;;;14.00;99.90;;;;;;4960649;28;20060;-79
2023/08/06 01:11:21;;;;;;;6.35;4.55;;;13.90;99.90;;;;;;4962683;28;20106;-79
2023/08/06 01:13:49;;;;;;;6.10;4.85;;;13.90;99.90;;;;;;4962749;28;20071;-79
2023/08/06 01:16:22;;;;;;;8.55;5.53;;;13.90;99.90;;;;;;4962786;28;20031;-80
2023/08/06 01:18:51;;;;;;;7.72;5.75;;;13.80;99.90;;;;;;4963329;28;21279;-80
2023/08/06 01:21:17;;;;;;;12.80;6.60;;;13.80;99.90;;;;;;4963827;28;20035;-80
2023/08/06 01:23:43;;;;;;;7.85;5.97;;;13.70;99.90;;;;;;4962437;28;20081;-79
2023/08/06 01:26:18;;;;;;;8.73;6.28;;;13.70;99.90;;;;;;4961162;28;20043;-79
2023/08/06 01:29:17;;;;;;;11.68;6.68;;;13.80;99.90;;;;;;4962816;28;20422;-79
2023/08/06 01:31:44;;;;;;;8.27;6.13;;;13.80;99.90;;;;;;4962867;28;20030;-79
2023/08/06 01:34:17;;;;;;;13.13;7.03;;;13.70;99.90;;;;;;4962254;28;20701;-80
2023/08/06 01:36:43;;;;;;;8.20;6.50;;;13.70;99.90;;;;;;4961455;28;20030;-80
2023/08/06 01:39:08;;;;;;;8.52;6.90;;;13.70;99.90;;;;;;4961426;28;20039;-79
2023/08/06 01:41:34;;;;;;;9.60;6.50;;;13.70;99.90;;;;;;4962401;28;20706;-80
2023/08/06 01:43:59;;;;;;;9.95;6.90;;;13.70;99.90;;;;;;4962491;28;20034;-79
2023/08/06 01:46:25;;;;;;;8.15;6.38;;;13.70;99.90;;;;;;4961941;28;20137;-80
2023/08/06 01:48:50;;;;;;;9.88;6.32;;;13.70;99.90;;;;;;4962651;28;20030;-79
2023/08/06 01:51:16;;;;;;;11.05;6.45;;;13.70;99.90;;;;;;4962022;28;20029;-80
2023/08/06 01:53:41;;;;;;;11.98;6.22;;;13.70;99.90;;;;;;4961701;28;20026;-80
2023/08/06 01:56:07;;;;;;;6.93;6.22;;;13.70;99.90;;;;;;4961660;28;20036;-80
2023/08/06 01:58:33;;;;;;;7.90;5.72;;;13.70;99.90;;;;;;4962776;28;20106;-80
2023/08/06 02:00:58;;;;;;;8.27;5.43;;;13.70;99.90;;;;;;4961800;28;20244;-80
2023/08/06 02:03:24;;;;;;;6.95;5.30;;;13.70;99.90;;;;;;4961391;28;20061;-79
2023/08/06 02:05:49;;;;;;;13.13;5.90;;;13.70;99.90;;;;;;4961660;28;20137;-80
2023/08/06 02:08:15;;;;;;;8.10;5.50;;;13.70;99.90;;;;;;4960982;28;20746;-79
2023/08/06 02:10:41;;;;;;;7.25;4.85;;;13.60;99.90;;;;;;4961992;28;20066;-80
2023/08/06 02:13:07;;;;;;;9.10;5.20;;;13.60;99.90;;;;;;4961292;28;20083;-80
2023/08/06 02:15:32;;;;;;;6.78;4.60;;;13.60;99.90;;;;;;4961841;28;20034;-79
2023/08/06 02:17:58;;;;;;;6.63;4.47;;;13.60;99.90;;;;;;4960094;28;20085;-79
2023/08/06 02:20:23;;;;;;;5.35;4.25;;;13.60;99.90;;;;;;4961761;28;20020;-79
2023/08/06 02:22:49;;;;;;;5.80;4.20;;;13.60;99.90;;;;;;4961605;28;20031;-79
2023/08/06 02:25:14;;;;;;;9.50;4.78;;;13.60;99.90;;;;;;4960967;28;20601;-79
2023/08/06 02:27:40;;;;;;;6.15;3.75;;;13.50;99.90;;;;;;4961038;28;20605;-80
2023/08/06 02:30:06;;;;;;;4.93;3.40;;;13.60;99.90;;;;;;4961654;28;20048;-80
2023/08/06 02:32:32;;;;;;;4.82;3.72;;;13.60;99.90;;;;;;4961538;28;20455;-79
2023/08/06 02:34:58;;;;;;;5.93;3.60;;;13.50;99.90;;;;;;4959551;28;20035;-79
2023/08/06 02:37:23;;;;;;;6.07;3.45;;;13.50;99.90;;;;;;4960691;28;20392;-79
2023/08/06 02:39:49;;;;;;;4.20;3.38;;;13.50;99.90;;;;;;4960738;28;20033;-80
2023/08/06 02:42:14;;;;;;;6.28;4.15;;;13.50;99.90;;;;;;4960229;28;20027;-79
2023/08/06 02:44:40;;;;;;;4.35;3.47;;;13.50;99.90;;;;;;4960368;28;20051;-79
2023/08/06 02:47:06;;;;;;;6.80;3.45;;;13.50;99.90;;;;;;4959853;28;20015;-79
2023/08/06 02:49:31;;;;;;;6.70;3.88;;;13.50;99.90;;;;;;4960869;28;20816;-79
2023/08/06 02:51:57;;;;;;;5.25;3.85;;;13.50;99.90;;;;;;4960445;28;20023;-79
2023/08/06 02:54:22;;;;;;;7.45;3.42;;;13.40;99.90;;;;;;4960176;28;20023;-79
2023/08/06 02:56:48;;;;;;;4.32;3.40;;;13.40;99.90;;;;;;4960341;28;20486;-79
2023/08/06 02:59:13;;;;;;;4.72;3.58;;;13.40;99.90;;;;;;4960719;28;20441;-79
2023/08/06 03:01:39;;;;;;;4.63;3.30;;;13.40;99.90;;;;;;4960962;28;20027;-79
2023/08/06 03:04:05;;;;;;;6.03;3.80;;;13.30;99.90;;;;;;4960812;28;20048;-79
2023/08/06 03:06:31;;;;;;;5.53;3.78;;;13.30;99.90;;;;;;4959935;28;20023;-79
2023/08/06 03:08:56;;;;;;;4.13;3.33;;;13.30;99.90;;;;;;4960659;28;20073;-79
2023/08/06 03:11:22;;;;;;;6.65;3.55;;;13.30;99.90;;;;;;4960276;28;20029;-79
2023/08/06 03:13:48;;;;;;;7.20;3.63;;;13.30;99.90;;;;;;4959647;28;20035;-79
2023/08/06 03:16:14;;;;;;;5.57;3.70;;;13.20;99.90;;;;;;4959455;28;20589;-80
2023/08/06 03:18:40;;;;;;;5.68;4.03;;;13.20;99.90;;;;;;4960074;28;20039;-79
2023/08/06 03:21:05;;;;;;;6.28;3.72;;;13.20;99.90;;;;;;4960160;28;20019;-79
2023/08/06 03:23:31;;;;;;;6.13;3.22;;;13.20;99.90;;;;;;4959044;28;20501;-80
2023/08/06 03:26:00;;;;;;;4.68;3.60;;;13.20;99.90;;;;;;4959204;28;20050;-79
2023/08/06 03:28:26;;;;;;;5.70;3.53;;;13.20;99.90;;;;;;4959846;28;20027;-79
2023/08/06 03:31:02;;;;;;;4.97;3.38;;;13.20;99.90;;;;;;4959169;28;20553;-79
2023/08/06 03:33:28;;;;;;;8.27;3.40;;;13.20;99.90;;;;;;4959537;28;20065;-79
2023/08/06 03:35:53;;;;;;;7.47;3.50;;;13.10;99.90;;;;;;4959467;28;20118;-79
2023/08/06 03:38:19;;;;;;;5.90;3.45;;;13.10;99.90;;;;;;4959625;28;20980;-79
2023/08/06 03:40:45;;;;;;;5.25;3.22;;;13.10;99.90;;;;;;4959614;28;20339;-79
2023/08/06 03:43:11;;;;;;;6.68;3.60;;;13.10;99.90;;;;;;4960138;28;20055;-79
2023/08/06 03:45:36;;;;;;;5.55;3.33;;;13.00;99.90;;;;;;4959365;28;20062;-79
2023/08/06 03:48:02;;;;;;;6.57;3.47;;;13.10;99.90;;;;;;4958866;28;20405;-79
2023/08/06 03:50:28;;;;;;;4.80;3.70;;;13.00;99.90;;;;;;4958530;28;21536;-79
2023/08/06 03:52:53;;;;;;;11.27;3.53;;;13.00;99.90;;;;;;4959607;28;20577;-79
2023/08/06 03:55:19;;;;;;;4.38;3.22;;;13.00;99.90;;;;;;4959647;28;20130;-79
2023/08/06 03:57:44;;;;;;;4.93;3.47;;;13.00;99.90;;;;;;4958552;28;20026;-79
2023/08/06 04:00:10;;;;;;;5.30;3.20;;;12.90;99.90;;;;;;4958541;28;20037;-79
2023/08/06 04:02:36;;;;;;;4.95;3.30;;;12.90;99.90;;;;;;4958721;28;20074;-79
2023/08/06 04:05:01;;;;;;;4.88;3.10;;;12.90;99.90;;;;;;4958749;28;20584;-79
2023/08/06 04:07:27;;;;;;;7.10;3.35;;;12.90;99.90;;;;;;4959483;28;20046;-79
2023/08/06 04:09:57;;;;;;;3.53;2.70;;;12.90;99.90;;;;;;4958805;28;20038;-79
2023/08/06 04:12:23;;;;;;;5.13;3.00;;;12.90;99.90;;;;;;4958059;28;20447;-79
2023/08/06 04:14:50;;;;;;;5.15;3.28;;;12.80;99.90;;;;;;4958167;28;20039;-79
2023/08/06 04:17:16;;;;;;;3.85;2.80;;;12.90;99.90;;;;;;4958729;28;20674;-79
2023/08/06 04:19:41;;;;;;;4.50;2.90;;;12.90;99.90;;;;;;4959240;28;20042;-79
2023/08/06 04:22:07;;;;;;;4.82;2.83;;;12.90;99.90;;;;;;4958339;28;20495;-79
2023/08/06 04:24:32;;;;;;;4.65;2.67;;;13.00;99.90;;;;;;4958096;28;20039;-79
2023/08/06 04:26:58;;;;;;;5.95;2.63;;;13.00;99.90;;;;;;4958058;28;20085;-79
2023/08/06 04:29:23;;;;;;;5.53;2.90;;;13.00;99.90;;;;;;4958969;28;20059;-79
2023/08/06 04:31:49;;;;;;;5.60;2.72;;;13.00;99.90;;;;;;4959809;28;21029;-79
2023/08/06 04:34:14;;;;;;;4.53;2.80;;;13.00;99.90;;;;;;4958796;28;20059;-79
2023/08/06 04:36:40;;;;;;;5.70;2.70;;;13.10;99.90;;;;;;4957849;28;20534;-79
2023/08/06 04:39:06;;;;;;;5.05;3.25;;;13.10;99.90;;;;;;4958735;28;20027;-79
2023/08/06 04:41:31;;;;;;;4.22;2.55;;;13.10;99.90;;;;;;4958637;28;20037;-79
2023/08/06 04:43:57;;;;;;;4.05;2.58;;;13.20;99.90;;;;;;4958812;28;20038;-79
2023/08/06 04:46:22;;;;;;;5.63;2.88;;;13.20;99.90;;;;;;4958094;28;20036;-79
2023/08/06 04:48:48;;;;;;;6.68;2.88;;;13.20;99.90;;;;;;4957924;28;20570;-79
2023/08/06 04:51:14;;;;;;;4.18;2.53;;;13.20;99.90;;;;;;4958772;28;20027;-79
2023/08/06 04:53:40;;;;;;;5.53;2.88;;;13.20;99.90;;;;;;4958041;28;20081;-79
2023/08/06 04:56:05;;;;;;;6.10;2.67;;;13.20;99.90;;;;;;4957909;28;20039;-79
2023/08/06 04:58:31;;;;;;;3.55;2.53;;;13.30;99.90;;;;;;4958049;28;20134;-79
2023/08/06 05:00:56;;;;;;;4.18;2.67;;;13.30;99.90;;;;;;4957877;28;20030;-80
2023/08/06 05:03:22;;;;;;;3.38;2.40;;;13.30;99.90;;;;;;4958004;28;20039;-80
2023/08/06 05:05:48;;;;;;;2.90;2.45;;;13.30;99.90;;;;;;4957962;28;20023;-80
2023/08/06 05:08:18;;;;;;;4.70;2.92;;;13.40;99.90;;;;;;4957969;28;20033;-80
2023/08/06 05:10:46;;;;;;;5.00;2.65;;;13.40;99.90;;;;;;4959532;28;20084;-80
2023/08/06 05:13:12;;;;;;;3.97;2.95;;;13.40;99.90;;;;;;4957291;28;20032;-80
2023/08/06 05:15:39;;;;;;;4.47;2.35;;;13.40;99.90;;;;;;4958127;28;20031;-80
2023/08/06 05:18:05;;;;;;;3.45;2.70;;;13.40;99.90;;;;;;4959134;28;20031;-80
2023/08/06 05:20:30;;;;;;;5.13;2.65;;;13.40;99.90;;;;;;4962387;28;20030;-80
2023/08/06 05:22:56;;;;;;;2.85;2.40;;;13.40;99.90;;;;;;4962349;28;20039;-80
2023/08/06 05:25:21;;;;;;;4.22;2.70;;;13.40;99.90;;;;;;4963622;28;20108;-80
2023/08/06 05:27:47;;;;;;;4.05;2.85;;;13.50;99.90;;;;;;4962355;28;20581;-80
2023/08/06 05:30:13;;;;;;;3.55;2.60;;;13.50;99.90;;;;;;4962958;28;20038;-81
2023/08/06 05:32:38;;;;;;;6.32;2.50;;;13.50;99.90;;;;;;4962216;28;20181;-80
2023/08/06 05:35:04;;;;;;;5.50;2.67;;;13.50;99.90;;;;;;4961793;28;20035;-80
2023/08/06 05:37:29;;;;;;;4.32;2.70;;;13.50;99.90;;;;;;4961621;28;20035;-80
2023/08/06 05:39:55;;;;;;;2.47;1.90;;;13.60;99.90;;;;;;4961222;28;20061;-80
2023/08/06 05:42:21;;;;;;;2.95;2.30;;;13.60;99.90;;;;;;4961427;28;20044;-80
2023/08/06 05:44:46;;;;;;;3.05;2.22;;;13.70;99.90;;;;;;4961789;28;20136;-80
2023/08/06 05:47:11;;;;;;;3.85;2.55;;;13.70;99.90;;;;;;4961862;28;20022;-80
2023/08/06 05:49:37;;;;;;;3.28;2.53;;;13.80;99.90;;;;;;4960580;28;20039;-81
2023/08/06 05:52:06;;;;;;;5.63;2.60;;;13.80;99.90;;;;;;4962562;28;20034;-80
2023/08/06 05:54:31;;;;;;;3.63;2.40;;;13.90;99.90;;;;;;4963035;28;20035;-81
2023/08/06 05:56:57;;;;;;;5.60;2.58;;;13.90;99.90;;;;;;4962412;28;20061;-80
2023/08/06 05:59:22;;;;;;;3.92;2.28;;;14.00;99.90;;;;;;4962466;28;20735;-81
2023/08/06 06:01:48;;;;;;;5.15;2.53;;;14.00;99.90;;;;;;4962756;28;20030;-80
2023/08/06 06:04:13;;;;;;;5.20;2.30;;;14.10;99.90;;;;;;4959269;28;20027;-81
2023/08/06 06:06:41;;;;;;;2.80;2.20;;;14.20;99.90;;;;;;4961989;28;20149;-81
2023/08/06 06:09:07;;;;;;;3.83;2.05;;;14.20;99.90;;;;;;4961452;28;20058;-81
2023/08/06 06:11:32;;;;;;;3.83;2.33;;;14.30;99.90;;;;;;4962357;28;20670;-81
2023/08/06 06:13:58;;;;;;;5.78;2.38;;;14.40;99.90;;;;;;4961843;28;20031;-80
2023/08/06 06:16:23;;;;;;;17.67;3.95;;;14.40;99.90;;;;;;4961314;28;20023;-81
2023/08/06 06:18:49;;;;;;;3.95;2.28;;;14.50;99.90;;;;;;4962367;28;20027;-81
2023/08/06 06:21:15;;;;;;;3.35;2.33;;;14.60;99.90;;;;;;4960446;28;20026;-79
2023/08/06 06:23:40;;;;;;;3.55;2.00;;;14.80;99.90;;;;;;4957603;28;20041;-81
2023/08/06 06:26:06;;;;;;;5.95;1.98;;;14.80;99.90;;;;;;4955849;28;20031;-80
2023/08/06 06:28:31;;;;;;;4.00;1.85;;;14.80;99.90;;;;;;4954064;28;20042;-82
2023/08/06 06:31:01;;;;;;;4.28;1.90;;;14.90;99.90;;;;;;4953743;28;20039;-80
2023/08/06 06:33:26;;;;;;;5.68;2.05;;;15.00;99.90;;;;;;4955842;28;20039;-81
2023/08/06 06:35:52;;;;;;;3.30;1.80;;;15.00;99.90;;;;;;4954583;28;20058;-81
2023/08/06 06:38:17;;;;;;;3.10;1.80;;;15.10;99.90;;;;;;4957242;28;20066;-81
2023/08/06 06:40:43;;;;;;;5.07;1.73;;;15.10;99.90;;;;;;4956319;28;20030;-82
2023/08/06 06:43:08;;;;;;;4.05;2.25;;;15.10;99.90;;;;;;4956832;28;20053;-82
2023/08/06 06:45:34;;;;;;;2.40;1.80;;;15.30;99.90;;;;;;4960290;28;20037;-81
2023/08/06 06:47:59;;;;;;;2.85;1.65;;;15.30;99.90;;;;;;4961241;28;20027;-81
2023/08/06 06:50:26;;;;;;;4.03;1.42;;;15.30;99.90;;;;;;4961484;28;20042;-81
2023/08/06 06:52:51;;;;;;;2.72;1.70;;;15.50;99.90;;;;;;4961972;28;20031;-81
2023/08/06 06:55:17;;;;;;;3.88;2.05;;;15.70;99.90;;;;;;4961335;28;20390;-85
2023/08/06 06:57:42;;;;;;;2.72;1.50;;;15.70;99.90;;;;;;4960437;28;20027;-81
2023/08/06 07:00:08;;;;;;;2.97;1.50;;;15.80;99.90;;;;;;4961075;28;20046;-82
2023/08/06 07:02:34;;;;;;;2.20;1.30;;;15.80;99.90;;;;;;4961464;28;20035;-82
2023/08/06 07:04:59;;;;;;;3.83;1.48;;;15.90;99.90;;;;;;4961640;28;20084;-81
2023/08/06 07:07:25;;;;;;;14.25;1.55;;;16.20;99.90;;;;;;4960902;28;20033;-81
2023/08/06 07:09:50;;;;;;;3.13;1.10;;;16.20;99.90;;;;;;4961314;28;20431;-82
2023/08/06 07:12:16;;;;;;;4.57;1.33;;;16.30;99.90;;;;;;4961433;28;21188;-82
2023/08/06 07:14:41;;;;;;;6.45;1.77;;;16.30;99.90;;;;;;4960117;28;20026;-81
2023/08/06 07:17:07;;;;;;;1.63;1.20;;;16.30;99.90;;;;;;4960350;28;20033;-81
2023/08/06 07:19:32;;;;;;;2.53;1.42;;;16.10;99.90;;;;;;4960136;28;20022;-81
2023/08/06 07:21:58;;;;;;;2.35;1.20;;;16.00;99.90;;;;;;4960826;28;20031;-82
2023/08/06 07:24:23;;;;;;;1.42;0.90;;;15.70;99.90;;;;;;4961467;28;20039;-81
2023/08/06 07:26:49;;;;;;;3.25;1.23;;;15.50;99.90;;;;;;4959325;28;20434;-79
2023/08/06 07:29:21;;;;;;;2.80;1.20;;;15.30;99.90;;;;;;4958923;28;20801;-80
2023/08/06 07:31:47;;;;;;;3.03;1.30;;;15.10;99.90;;;;;;4959333;28;20023;-80
2023/08/06 07:34:12;;;;;;;1.70;1.20;;;14.90;99.90;;;;;;4958887;28;20825;-80
2023/08/06 07:36:38;;;;;;;4.75;1.38;;;14.80;99.90;;;;;;4959575;28;20031;-79
2023/08/06 07:39:06;;;;;;;2.10;0.90;;;14.70;99.90;;;;;;4958853;28;20050;-80
2023/08/06 07:41:31;;;;;;;2.70;1.77;;;14.70;99.90;;;;;;4958225;28;20023;-80
2023/08/06 07:43:57;;;;;;;2.65;1.77;;;14.70;99.90;;;;;;4959012;28;21403;-80
2023/08/06 07:46:22;;;;;;;4.15;1.15;;;14.80;99.90;;;;;;4957193;28;20034;-79
2023/08/06 07:48:48;;;;;;;2.35;1.17;;;14.90;99.90;;;;;;4958725;28;20055;-80
2023/08/06 07:51:13;;;;;;;1.63;1.02;;;15.00;99.90;;;;;;4959025;28;20056;-80
2023/08/06 07:53:39;;;;;;;2.22;1.20;;;15.10;99.90;;;;;;4959373;28;20174;-80
2023/08/06 07:56:04;;;;;;;4.20;1.33;;;15.30;99.90;;;;;;4957862;28;20126;-80
2023/08/06 07:58:31;;;;;;;2.40;1.27;;;15.40;99.90;;;;;;4957755;28;20084;-80
2023/08/06 08:00:57;;;;;;;2.58;1.10;;;15.50;99.90;;;;;;4957934;28;20387;-79
2023/08/06 08:03:22;;;;;;;3.33;1.17;;;15.50;99.90;;;;;;4958271;28;20041;-79
2023/08/06 08:05:48;;;;;;;3.05;1.27;;;15.70;99.90;;;;;;4958902;28;20029;-79
2023/08/06 08:08:13;;;;;;;3.08;1.20;;;15.90;99.90;;;;;;4959648;28;20030;-81
2023/08/06 08:10:39;;;;;;;3.63;1.13;;;16.20;99.90;;;;;;4959253;28;20033;-80
2023/08/06 08:13:05;;;;;;;1.52;0.93;;;16.50;99.90;;;;;;4959745;28;20080;-80
2023/08/06 08:15:32;;;;;;;1.85;0.88;;;16.80;99.90;;;;;;4958649;28;20035;-80
2023/08/06 08:17:57;;;;;;;4.25;1.20;;;17.00;99.90;;;;;;4959392;28;20034;-80
2023/08/06 08:20:23;;;;;;;2.85;1.02;;;17.00;99.90;;;;;;4957338;28;20034;-80
2023/08/06 08:22:49;;;;;;;2.75;1.10;;;17.00;99.90;;;;;;4958706;28;20027;-80
2023/08/06 08:25:16;;;;;;;2.38;1.17;;;17.00;99.90;;;;;;4955734;28;20023;-80
2023/08/06 08:27:41;;;;;;;3.63;1.30;;;16.90;99.90;;;;;;4957112;28;20502;-80
2023/08/06 08:30:07;;;;;;;2.55;0.93;;;16.80;99.90;;;;;;4955579;28;20039;-80
2023/08/06 08:32:33;;;;;;;2.22;0.90;;;16.70;99.90;;;;;;4956096;28;20026;-81
2023/08/06 08:34:58;;;;;;;2.15;1.10;;;16.60;99.90;;;;;;4956535;28;20058;-80
2023/08/06 08:37:24;;;;;;;3.42;1.10;;;16.60;99.90;;;;;;4957808;28;20047;-80
2023/08/06 08:39:50;;;;;;;1.08;0.88;;;16.70;99.90;;;;;;4956899;28;20461;-80
2023/08/06 08:42:16;;;;;;;0.73;0.63;;;16.80;99.90;;;;;;4957069;28;20031;-81
2023/08/06 08:44:43;;;;;;;1.90;0.85;;;16.80;99.90;;;;;;4958378;28;20034;-81
2023/08/06 08:47:10;;;;;;;3.35;0.82;;;16.80;99.90;;;;;;4957115;28;20110;-81
2023/08/06 08:49:37;;;;;;;2.83;0.80;;;16.70;99.90;;;;;;4957376;28;20027;-81
2023/08/06 08:52:06;;;;;;;2.28;1.08;;;16.70;99.90;;;;;;4957151;28;20054;-81
2023/08/06 08:54:32;;;;;;;1.02;0.70;;;16.50;99.90;;;;;;4959514;28;20102;-81
2023/08/06 08:56:58;;;;;;;1.90;0.80;;;16.50;99.90;;;;;;4958604;28;20027;-80
2023/08/06 08:59:24;;;;;;;2.67;0.65;;;16.50;99.90;;;;;;4960029;28;20793;-81
2023/08/06 09:01:51;;;;;;;0.90;0.75;;;16.50;99.90;;;;;;4960914;28;20049;-81
2023/08/06 09:04:20;;;;;;;4.22;0.90;;;16.50;99.90;;;;;;4960955;28;21308;-80
2023/08/06 09:06:52;;;;;;;1.92;0.60;;;16.50;99.90;;;;;;4960708;28;20050;-83
2023/08/06 09:09:25;;;;;;;1.92;0.85;;;16.50;99.90;;;;;;4963237;28;20676;-81
2023/08/06 09:11:52;;;;;;;2.60;0.80;;;16.30;99.90;;;;;;4962945;28;20022;-82
2023/08/06 09:14:18;;;;;;;1.38;0.57;;;16.10;99.90;;;;;;4959061;28;20134;-83
2023/08/06 09:16:43;;;;;;;2.42;0.60;;;16.10;99.90;;;;;;4960957;28;20745;-80
2023/08/06 09:19:12;;;;;;;1.65;0.47;;;16.00;99.90;;;;;;4961948;28;20545;-84
2023/08/06 09:21:39;;;;;;;1.48;0.60;;;15.90;99.90;;;;;;4961154;28;20027;-81
2023/08/06 09:24:09;;;;;;;1.65;0.55;;;15.90;99.90;;;;;;4964246;28;20051;-83
2023/08/06 09:26:36;;;;;;;6.93;0.80;;;15.90;99.90;;;;;;4966107;28;20027;-84
2023/08/06 09:29:04;;;;;;;3.67;0.60;;;16.00;99.90;;;;;;4966718;28;20082;-84
2023/08/06 09:31:43;;;;;;;0.68;0.60;;;16.10;99.90;;;;;;4964071;28;20783;-80
2023/08/06 09:34:16;;;;;;;1.50;0.63;;;16.30;99.90;;;;;;4959834;28;20064;-80
2023/08/06 09:36:48;;;;;;;1.50;0.50;;;16.30;99.90;;;;;;4961010;28;20069;-80
2023/08/06 09:39:15;;;;;;;1.83;0.57;;;16.40;99.90;;;;;;4960283;28;20041;-80
2023/08/06 09:41:41;;;;;;;1.08;0.32;;;16.40;99.90;;;;;;4958702;28;20039;-79
2023/08/06 09:44:17;;;;;;;0.98;0.40;;;16.40;99.90;;;;;;4958949;28;20027;-81
2023/08/06 09:46:42;;;;;;;0.82;0.50;;;16.30;99.90;;;;;;4958817;28;20031;-78
2023/08/06 09:49:09;;;;;;;0.88;0.50;;;16.30;99.90;;;;;;4959043;28;20078;-80
2023/08/06 09:51:37;;;;;;;3.47;0.57;;;16.50;99.90;;;;;;4960135;28;20111;-80
2023/08/06 09:54:03;;;;;;;1.23;0.57;;;16.60;99.90;;;;;;4960038;28;20086;-78
2023/08/06 09:56:32;;;;;;;0.77;0.40;;;16.60;99.90;;;;;;4961835;28;20767;-80
2023/08/06 09:58:58;;;;;;;4.38;0.45;;;16.60;99.90;;;;;;4959594;28;20038;-81
2023/08/06 10:01:23;;;;;;;0.60;0.45;;;16.60;99.90;;;;;;4959960;28;20041;-83
2023/08/06 10:03:50;;;;;;;1.05;0.68;;;16.60;99.90;;;;;;4960636;28;20023;-79
2023/08/06 10:06:16;;;;;;;1.13;0.70;;;16.70;99.90;;;;;;4960094;28;20082;-81
2023/08/06 10:08:42;;;;;;;1.60;0.50;;;16.90;99.90;;;;;;4960772;28;20789;-80
2023/08/06 10:11:08;;;;;;;4.40;0.52;;;17.10;99.90;;;;;;4960548;28;20023;-80
2023/08/06 10:13:35;;;;;;;1.67;0.50;;;17.20;99.90;;;;;;4957939;28;20035;-79
2023/08/06 10:16:03;;;;;;;0.82;0.60;;;17.60;99.90;;;;;;4959079;28;20702;-80
2023/08/06 10:18:29;;;;;;;0.73;0.50;;;17.70;99.90;;;;;;4960689;28;20035;-80
2023/08/06 10:20:55;;;;;;;2.05;0.50;;;18.00;99.90;;;;;;4961096;28;20023;-80
2023/08/06 10:23:33;;;;;;;2.58;0.60;;;18.30;99.90;;;;;;4958963;28;20027;-80
2023/08/06 10:25:59;;;;;;;1.17;0.55;;;18.50;99.90;;;;;;4960875;28;20031;-80
2023/08/06 10:28:36;;;;;;;2.28;0.50;;;18.20;99.90;;;;;;4959770;28;20038;-81
2023/08/06 10:31:01;;;;;;;1.13;0.50;;;18.00;99.90;;;;;;4958626;28;20027;-79
2023/08/06 10:33:44;;;;;;;1.02;0.57;;;17.80;99.90;;;;;;4960263;28;20028;-80
2023/08/06 10:36:10;;;;;;;0.22;0.22;;;17.50;99.90;;;;;;4958715;28;20117;-80
2023/08/06 10:38:47;;;;;;;2.30;0.50;;;17.30;99.90;;;;;;4960301;28;20023;-80
2023/08/06 10:41:29;;;;;;;0.88;0.50;;;17.00;99.90;;;;;;4960761;28;20023;-80
2023/08/06 10:44:11;;;;;;;1.58;0.63;;;17.10;99.90;;;;;;4959696;28;20729;-81
2023/08/06 10:46:37;;;;;;;0.40;0.40;;;17.30;99.90;;;;;;4957556;28;20176;-79
2023/08/06 10:49:04;;;;;;;1.15;0.50;;;17.30;99.90;;;;;;4958017;28;20042;-79
2023/08/06 10:51:30;;;;;;;1.42;0.60;;;17.40;99.90;;;;;;4958655;28;20227;-78
2023/08/06 10:53:57;;;;;;;2.58;0.60;;;17.60;99.90;;;;;;4958064;28;20046;-80
2023/08/06 10:56:26;;;;;;;0.40;0.40;;;17.70;99.90;;;;;;4958854;28;20093;-79
2023/08/06 10:58:54;;;;;;;0.88;0.50;;;17.80;99.90;;;;;;4958350;28;20165;-80
2023/08/06 11:01:22;;;;;;;2.30;0.40;;;17.80;99.90;;;;;;4956728;28;20043;-80
2023/08/06 11:03:53;;;;;;;0.40;0.40;;;17.80;99.90;;;;;;4958570;28;20031;-79
2023/08/06 11:06:19;;;;;;;0.60;0.40;;;17.70;99.90;;;;;;4959287;28;20050;-89
2023/08/06 11:08:53;;;;;;;3.45;0.57;;;17.70;99.90;;;;;;4958177;28;20027;-81
2023/08/06 11:11:19;;;;;;;3.47;0.50;;;17.50;99.90;;;;;;4958719;28;20138;-80
2023/08/06 11:13:47;;;;;;;0.65;0.40;;;17.60;99.90;;;;;;4956556;28;21106;-80
2023/08/06 11:16:18;;;;;;;0.98;0.40;;;17.60;99.90;;;;;;4957325;28;20030;-78
2023/08/06 11:18:44;;;;;;;1.70;0.50;;;17.60;99.90;;;;;;4959739;28;20477;-81
2023/08/06 11:21:11;;;;;;;2.85;0.30;;;17.60;99.90;;;;;;4958222;28;20034;-80
2023/08/06 11:23:37;;;;;;;0.32;0.30;;;17.70;99.90;;;;;;4955829;28;20139;-80
2023/08/06 11:26:03;;;;;;;0.30;0.30;;;17.90;99.90;;;;;;4957529;28;20038;-81
2023/08/06 11:28:28;;;;;;;1.70;0.40;;;17.90;99.90;;;;;;4957623;28;20031;-80
2023/08/06 11:30:56;;;;;;;0.63;0.40;;;17.60;99.90;;;;;;4957368;28;20546;-80
2023/08/06 11:33:25;;;;;;;2.60;0.40;;;17.40;99.90;;;;;;4956307;28;20054;-80
2023/08/06 11:35:51;;;;;;;0.30;0.30;;;17.30;99.90;;;;;;4956811;28;20109;-80
2023/08/06 11:38:16;;;;;;;1.58;0.40;;;17.10;99.90;;;;;;4956771;28;20042;-80
2023/08/06 11:40:45;;;;;;;1.98;0.60;;;17.10;99.90;;;;;;4958361;28;20037;-81
2023/08/06 11:43:12;;;;;;;0.32;0.30;;;17.20;99.90;;;;;;4959562;28;20071;-80
2023/08/06 11:45:37;;;;;;;0.45;0.40;;;17.20;99.90;;;;;;4956578;28;20030;-80
2023/08/06 11:48:03;;;;;;;1.63;0.40;;;17.40;99.90;;;;;;4958748;28;20076;-80
2023/08/06 11:50:30;;;;;;;0.88;0.40;;;17.50;99.90;;;;;;4957739;28;20031;-81
2023/08/06 11:53:00;;;;;;;0.43;0.30;;;17.60;99.90;;;;;;4958417;28;20039;-81
2023/08/06 11:55:28;;;;;;;0.35;0.35;;;17.50;99.90;;;;;;4958165;28;20053;-81
2023/08/06 11:57:55;;;;;;;1.98;0.50;;;17.60;99.90;;;;;;4959103;28;20528;-80
2023/08/06 12:00:23;;;;;;;1.63;0.40;;;17.50;99.90;;;;;;4957349;28;20162;-80
2023/08/06 12:02:50;;;;;;;2.78;0.65;;;17.40;99.90;;;;;;4958314;28;20031;-80
2023/08/06 12:05:26;;;;;;;0.93;0.40;;;17.40;99.90;;;;;;4958459;28;20514;-80
2023/08/06 12:07:55;;;;;;;0.93;0.35;;;17.30;99.90;;;;;;4959440;28;20034;-80
2023/08/06 12:10:21;;;;;;;0.77;0.47;;;17.30;99.90;;;;;;4958958;28;20039;-81
2023/08/06 12:12:48;;;;;;;1.85;0.60;;;17.30;99.90;;;;;;4957807;28;20454;-80
2023/08/06 12:15:14;;;;;;;0.73;0.30;;;17.40;99.90;;;;;;4958067;28;20023;-80
2023/08/06 12:17:39;;;;;;;0.73;0.50;;;17.40;99.90;;;;;;4954049;28;20074;-82
2023/08/06 12:20:06;;;;;;;3.20;0.50;;;17.30;99.90;;;;;;4954852;28;20090;-80
2023/08/06 12:22:35;;;;;;;0.82;0.40;;;17.20;99.90;;;;;;4953595;28;20031;-81
2023/08/06 12:25:03;;;;;;;1.45;0.40;;;17.20;99.90;;;;;;4955525;28;20138;-82
2023/08/06 12:27:29;;;;;;;1.13;0.50;;;17.10;99.90;;;;;;4953983;28;20049;-81
2023/08/06 12:29:54;;;;;;;0.60;0.40;;;17.10;99.90;;;;;;4959459;28;20157;-82
2023/08/06 12:32:20;;;;;;;0.52;0.30;;;17.00;99.90;;;;;;4958614;28;20051;-80
2023/08/06 12:34:45;;;;;;;2.65;0.43;;;16.90;99.90;;;;;;4958779;28;20193;-81
2023/08/06 12:37:11;;;;;;;1.00;0.38;;;16.70;99.90;;;;;;4957177;28;20027;-81
2023/08/06 12:39:37;;;;;;;0.88;0.40;;;16.70;99.90;;;;;;4957998;28;21254;-81
2023/08/06 12:42:04;;;;;;;0.65;0.32;;;16.70;99.90;;;;;;4958965;28;20061;-81